Olga Topic — ELSG4 — position and weather

sailwx.info

Track history (hours):
 
Tides and Currents Weather Stations Pressure Air Temp Water Temp Dewpoint Dewpoint Depression Visibility Wind Speed Wind Dir Waves Ship Positions

Olga Topic

Last reported at 2015-Jan-19 00:28 UTC. Time now 2015-Jan-27 14:25 UTC.
Position N 06°16' E 002°31'.
Warning: this ship's position is 8 days out of date.

Length 186 m; draft 10 m.

Type: Cargo ship. MMSI: 636010327.

Date/timePositionNaut miles runAvg speedWind from/ knotsBaromVisibWave heightAir tempDewpointWater temp
2015-Jan-19 00:28N 06°16' E 002°31'0 0.0
2015-Jan-18 03:33N 06°16' E 002°31'0 0.2
2015-Jan-18 02:18N 06°16' E 002°31'12 6.9
2015-Jan-18 00:33N 06°09' E 002°21'  
2015-Jan-14 14:30N 07°58' W 014°39'1713.9
2015-Jan-14 13:16N 08°09' W 014°52'1013.6
2015-Jan-14 12:32N 08°16' W 014°60'6113.6
2015-Jan-14 08:04N 08°56' W 015°46'1114.0
2015-Jan-14 07:16N 09°03' W 015°54'1014.1
2015-Jan-14 06:33N 09°10' W 016°02'1414.0
2015-Jan-14 05:32N 09°19' W 016°13'1914.0
2015-Jan-14 04:12N 09°31' W 016°27'2314.1
2015-Jan-14 02:33N 09°47' W 016°45'1613.9
2015-Jan-14 01:24N 09°58' W 016°57'8514.0
2015-Jan-13 19:20N 11°15' W 017°32'  
Track history (hours):
 
Tides and Currents Weather Stations Pressure Air Temp Water Temp Dewpoint Dewpoint Depression Visibility Wind Speed Wind Dir Waves Ship Positions

Olga Topic

Last reported at 2015-Jan-19 00:28 UTC. Time now 2015-Jan-27 14:25 UTC.
Position N 06°16' E 002°31'.
Warning: this ship's position is 8 days out of date.

Length 186 m; draft 10 m.

Type: Cargo ship. MMSI: 636010327.

Date/timePositionNaut miles runAvg speedWind from/ knotsBaromVisibWave heightAir tempDewpointWater temp
2015-Jan-19 00:28N 06°16' E 002°31'0 0.0
2015-Jan-18 03:33N 06°16' E 002°31'0 0.2
2015-Jan-18 02:18N 06°16' E 002°31'12 6.9
2015-Jan-18 00:33N 06°09' E 002°21'  
2015-Jan-14 14:30N 07°58' W 014°39'1713.9
2015-Jan-14 13:16N 08°09' W 014°52'1013.6
2015-Jan-14 12:32N 08°16' W 014°60'6113.6
2015-Jan-14 08:04N 08°56' W 015°46'1114.0
2015-Jan-14 07:16N 09°03' W 015°54'1014.1
2015-Jan-14 06:33N 09°10' W 016°02'1414.0
2015-Jan-14 05:32N 09°19' W 016°13'1914.0
2015-Jan-14 04:12N 09°31' W 016°27'2314.1
2015-Jan-14 02:33N 09°47' W 016°45'1613.9
2015-Jan-14 01:24N 09°58' W 016°57'8514.0
2015-Jan-13 19:20N 11°15' W 017°32'  

Dump ship's entire track history